sensor_id;sensor_type;location;lat;lon;timestamp;P1;durP1;ratioP1;P2;durP2;ratioP2
69325;SDS011;56471;53.508;49.252;2023-07-24T00:01:17;4.57;;;3.05;;
69325;SDS011;56471;53.508;49.252;2023-07-24T00:03:43;4.22;;;2.90;;
69325;SDS011;56471;53.508;49.252;2023-07-24T00:06:10;5.50;;;3.13;;
69325;SDS011;56471;53.508;49.252;2023-07-24T00:08:35;4.70;;;3.13;;
69325;SDS011;56471;53.508;49.252;2023-07-24T00:11:01;4.38;;;3.28;;
69325;SDS011;56471;53.508;49.252;2023-07-24T00:13:29;4.65;;;3.13;;
69325;SDS011;56471;53.508;49.252;2023-07-24T00:15:56;5.45;;;3.40;;
69325;SDS011;56471;53.508;49.252;2023-07-24T00:18:22;5.10;;;3.45;;
69325;SDS011;56471;53.508;49.252;2023-07-24T00:20:48;6.30;;;2.97;;
69325;SDS011;56471;53.508;49.252;2023-07-24T00:23:13;4.65;;;3.20;;
69325;SDS011;56471;53.508;49.252;2023-07-24T00:25:39;4.28;;;3.17;;
69325;SDS011;56471;53.508;49.252;2023-07-24T00:28:05;3.75;;;3.20;;
69325;SDS011;56471;53.508;49.252;2023-07-24T00:30:30;6.28;;;3.60;;
69325;SDS011;56471;53.508;49.252;2023-07-24T00:32:56;3.70;;;3.30;;
69325;SDS011;56471;53.508;49.252;2023-07-24T00:35:21;4.03;;;3.35;;
69325;SDS011;56471;53.508;49.252;2023-07-24T00:37:47;3.63;;;3.33;;
69325;SDS011;56471;53.508;49.252;2023-07-24T00:40:13;4.32;;;3.22;;
69325;SDS011;56471;53.508;49.252;2023-07-24T00:42:38;3.70;;;3.40;;
69325;SDS011;56471;53.508;49.252;2023-07-24T00:45:04;3.70;;;3.40;;
69325;SDS011;56471;53.508;49.252;2023-07-24T00:47:30;4.15;;;3.20;;
69325;SDS011;56471;53.508;49.252;2023-07-24T00:49:56;3.75;;;3.17;;
69325;SDS011;56471;53.508;49.252;2023-07-24T00:52:22;3.88;;;3.30;;
69325;SDS011;56471;53.508;49.252;2023-07-24T00:54:48;3.30;;;3.00;;
69325;SDS011;56471;53.508;49.252;2023-07-24T00:57:14;4.28;;;3.28;;
69325;SDS011;56471;53.508;49.252;2023-07-24T00:59:40;4.35;;;3.00;;
69325;SDS011;56471;53.508;49.252;2023-07-24T01:02:07;4.22;;;3.20;;
69325;SDS011;56471;53.508;49.252;2023-07-24T01:04:33;7.00;;;3.50;;
69325;SDS011;56471;53.508;49.252;2023-07-24T01:06:59;6.20;;;3.47;;
69325;SDS011;56471;53.508;49.252;2023-07-24T01:09:25;3.97;;;3.30;;
69325;SDS011;56471;53.508;49.252;2023-07-24T01:12:13;3.53;;;3.00;;
69325;SDS011;56471;53.508;49.252;2023-07-24T01:14:55;4.72;;;3.40;;
69325;SDS011;56471;53.508;49.252;2023-07-24T01:17:31;3.97;;;3.20;;
69325;SDS011;56471;53.508;49.252;2023-07-24T01:19:59;3.35;;;2.85;;
69325;SDS011;56471;53.508;49.252;2023-07-24T01:25:10;3.22;;;2.92;;
69325;SDS011;56471;53.508;49.252;2023-07-24T01:27:56;5.20;;;3.08;;
69325;SDS011;56471;53.508;49.252;2023-07-24T01:30:22;5.40;;;3.15;;
69325;SDS011;56471;53.508;49.252;2023-07-24T01:32:47;3.92;;;3.10;;
69325;SDS011;56471;53.508;49.252;2023-07-24T01:35:14;3.38;;;3.00;;
69325;SDS011;56471;53.508;49.252;2023-07-24T01:37:40;3.72;;;3.15;;
69325;SDS011;56471;53.508;49.252;2023-07-24T01:40:08;4.60;;;3.17;;
69325;SDS011;56471;53.508;49.252;2023-07-24T01:42:34;4.60;;;3.13;;
69325;SDS011;56471;53.508;49.252;2023-07-24T01:45:02;3.53;;;3.05;;
69325;SDS011;56471;53.508;49.252;2023-07-24T01:47:29;3.83;;;3.25;;
69325;SDS011;56471;53.508;49.252;2023-07-24T01:49:58;4.60;;;3.10;;
69325;SDS011;56471;53.508;49.252;2023-07-24T01:52:23;3.80;;;2.90;;
69325;SDS011;56471;53.508;49.252;2023-07-24T01:54:49;3.67;;;3.38;;
69325;SDS011;56471;53.508;49.252;2023-07-24T01:57:15;5.65;;;3.30;;
69325;SDS011;56471;53.508;49.252;2023-07-24T01:59:40;3.83;;;3.15;;
69325;SDS011;56471;53.508;49.252;2023-07-24T02:02:06;5.43;;;3.40;;
69325;SDS011;56471;53.508;49.252;2023-07-24T02:04:32;3.95;;;3.38;;
69325;SDS011;56471;53.508;49.252;2023-07-24T02:06:57;4.47;;;3.42;;
69325;SDS011;56471;53.508;49.252;2023-07-24T02:09:23;3.65;;;3.22;;
69325;SDS011;56471;53.508;49.252;2023-07-24T02:11:48;3.58;;;3.17;;
69325;SDS011;56471;53.508;49.252;2023-07-24T02:14:14;3.60;;;3.10;;
69325;SDS011;56471;53.508;49.252;2023-07-24T02:16:41;3.55;;;3.25;;
69325;SDS011;56471;53.508;49.252;2023-07-24T02:19:07;3.42;;;3.13;;
69325;SDS011;56471;53.508;49.252;2023-07-24T02:21:33;5.38;;;3.58;;
69325;SDS011;56471;53.508;49.252;2023-07-24T02:23:58;4.15;;;3.35;;
69325;SDS011;56471;53.508;49.252;2023-07-24T02:26:24;3.40;;;3.10;;
69325;SDS011;56471;53.508;49.252;2023-07-24T02:28:50;3.75;;;3.05;;
69325;SDS011;56471;53.508;49.252;2023-07-24T02:31:15;5.97;;;3.38;;
69325;SDS011;56471;53.508;49.252;2023-07-24T02:33:41;4.18;;;3.40;;
69325;SDS011;56471;53.508;49.252;2023-07-24T02:36:07;3.90;;;3.50;;
69325;SDS011;56471;53.508;49.252;2023-07-24T02:38:32;3.50;;;3.20;;
69325;SDS011;56471;53.508;49.252;2023-07-24T02:40:58;5.95;;;3.17;;
69325;SDS011;56471;53.508;49.252;2023-07-24T02:43:24;4.72;;;3.55;;
69325;SDS011;56471;53.508;49.252;2023-07-24T02:45:49;4.65;;;3.40;;
69325;SDS011;56471;53.508;49.252;2023-07-24T02:48:15;3.80;;;3.40;;
69325;SDS011;56471;53.508;49.252;2023-07-24T02:50:41;3.90;;;3.50;;
69325;SDS011;56471;53.508;49.252;2023-07-24T02:53:06;3.55;;;3.25;;
69325;SDS011;56471;53.508;49.252;2023-07-24T02:55:32;4.03;;;3.30;;
69325;SDS011;56471;53.508;49.252;2023-07-24T02:57:58;4.22;;;3.40;;
69325;SDS011;56471;53.508;49.252;2023-07-24T03:00:23;3.83;;;3.25;;
69325;SDS011;56471;53.508;49.252;2023-07-24T03:02:50;4.50;;;3.40;;
69325;SDS011;56471;53.508;49.252;2023-07-24T03:05:17;3.63;;;3.33;;
69325;SDS011;56471;53.508;49.252;2023-07-24T03:07:43;4.80;;;3.30;;
69325;SDS011;56471;53.508;49.252;2023-07-24T03:10:08;5.20;;;3.22;;
69325;SDS011;56471;53.508;49.252;2023-07-24T03:12:34;3.80;;;3.45;;
69325;SDS011;56471;53.508;49.252;2023-07-24T03:15:00;4.97;;;3.50;;
69325;SDS011;56471;53.508;49.252;2023-07-24T03:17:26;4.28;;;3.30;;
69325;SDS011;56471;53.508;49.252;2023-07-24T03:19:53;3.65;;;3.35;;
69325;SDS011;56471;53.508;49.252;2023-07-24T03:22:19;3.97;;;3.58;;
69325;SDS011;56471;53.508;49.252;2023-07-24T03:24:45;4.15;;;3.40;;
69325;SDS011;56471;53.508;49.252;2023-07-24T03:27:10;4.47;;;3.65;;
69325;SDS011;56471;53.508;49.252;2023-07-24T03:29:37;4.32;;;3.72;;
69325;SDS011;56471;53.508;49.252;2023-07-24T03:32:02;4.93;;;3.80;;
69325;SDS011;56471;53.508;49.252;2023-07-24T03:34:28;4.65;;;3.67;;
69325;SDS011;56471;53.508;49.252;2023-07-24T03:36:54;5.05;;;3.97;;
69325;SDS011;56471;53.508;49.252;2023-07-24T03:39:20;4.80;;;3.70;;
69325;SDS011;56471;53.508;49.252;2023-07-24T03:41:45;6.95;;;4.07;;
69325;SDS011;56471;53.508;49.252;2023-07-24T03:44:11;4.22;;;3.63;;
69325;SDS011;56471;53.508;49.252;2023-07-24T03:46:36;5.90;;;3.83;;
69325;SDS011;56471;53.508;49.252;2023-07-24T03:49:02;7.32;;;3.70;;
69325;SDS011;56471;53.508;49.252;2023-07-24T03:51:28;5.40;;;3.67;;
69325;SDS011;56471;53.508;49.252;2023-07-24T03:53:53;4.55;;;3.53;;
69325;SDS011;56471;53.508;49.252;2023-07-24T03:56:19;4.18;;;3.70;;
69325;SDS011;56471;53.508;49.252;2023-07-24T03:58:45;3.97;;;3.58;;
69325;SDS011;56471;53.508;49.252;2023-07-24T04:01:10;3.85;;;3.42;;
69325;SDS011;56471;53.508;49.252;2023-07-24T04:03:36;3.65;;;3.35;;
69325;SDS011;56471;53.508;49.252;2023-07-24T04:06:02;4.22;;;3.55;;
69325;SDS011;56471;53.508;49.252;2023-07-24T04:08:28;4.25;;;3.60;;
69325;SDS011;56471;53.508;49.252;2023-07-24T04:10:53;3.80;;;3.47;;
69325;SDS011;56471;53.508;49.252;2023-07-24T04:13:21;3.88;;;3.55;;
69325;SDS011;56471;53.508;49.252;2023-07-24T04:15:47;3.95;;;3.58;;
69325;SDS011;56471;53.508;49.252;2023-07-24T04:18:12;4.38;;;3.45;;
69325;SDS011;56471;53.508;49.252;2023-07-24T04:20:38;7.00;;;3.63;;
69325;SDS011;56471;53.508;49.252;2023-07-24T04:23:04;4.72;;;4.00;;
69325;SDS011;56471;53.508;49.252;2023-07-24T04:25:29;5.20;;;3.72;;
69325;SDS011;56471;53.508;49.252;2023-07-24T04:27:55;4.78;;;4.05;;
69325;SDS011;56471;53.508;49.252;2023-07-24T04:30:21;5.80;;;3.63;;
69325;SDS011;56471;53.508;49.252;2023-07-24T04:32:46;4.40;;;3.85;;
69325;SDS011;56471;53.508;49.252;2023-07-24T04:35:12;4.28;;;3.83;;
69325;SDS011;56471;53.508;49.252;2023-07-24T04:37:38;4.57;;;3.90;;
69325;SDS011;56471;53.508;49.252;2023-07-24T04:40:03;4.55;;;3.70;;
69325;SDS011;56471;53.508;49.252;2023-07-24T04:42:30;4.13;;;3.72;;
69325;SDS011;56471;53.508;49.252;2023-07-24T04:44:56;4.63;;;3.67;;
69325;SDS011;56471;53.508;49.252;2023-07-24T04:47:21;4.43;;;3.80;;
69325;SDS011;56471;53.508;49.252;2023-07-24T04:49:47;5.28;;;3.92;;
69325;SDS011;56471;53.508;49.252;2023-07-24T04:52:13;4.10;;;3.70;;
69325;SDS011;56471;53.508;49.252;2023-07-24T04:54:38;4.43;;;3.88;;
69325;SDS011;56471;53.508;49.252;2023-07-24T04:57:04;4.38;;;3.92;;
69325;SDS011;56471;53.508;49.252;2023-07-24T04:59:30;4.18;;;3.88;;
69325;SDS011;56471;53.508;49.252;2023-07-24T05:01:55;4.43;;;4.03;;
69325;SDS011;56471;53.508;49.252;2023-07-24T05:04:21;4.68;;;3.70;;
69325;SDS011;56471;53.508;49.252;2023-07-24T05:06:47;5.25;;;3.97;;
69325;SDS011;56471;53.508;49.252;2023-07-24T05:09:12;4.82;;;3.88;;
69325;SDS011;56471;53.508;49.252;2023-07-24T05:11:39;6.03;;;4.03;;
69325;SDS011;56471;53.508;49.252;2023-07-24T05:14:05;6.80;;;4.00;;
69325;SDS011;56471;53.508;49.252;2023-07-24T05:16:31;4.70;;;4.20;;
69325;SDS011;56471;53.508;49.252;2023-07-24T05:18:56;4.55;;;3.95;;
69325;SDS011;56471;53.508;49.252;2023-07-24T05:21:22;4.70;;;4.13;;
69325;SDS011;56471;53.508;49.252;2023-07-24T05:23:48;4.32;;;3.92;;
69325;SDS011;56471;53.508;49.252;2023-07-24T05:26:13;5.78;;;4.28;;
69325;SDS011;56471;53.508;49.252;2023-07-24T05:28:39;5.70;;;4.43;;
69325;SDS011;56471;53.508;49.252;2023-07-24T05:31:05;4.93;;;4.30;;
69325;SDS011;56471;53.508;49.252;2023-07-24T05:33:33;6.10;;;4.40;;
69325;SDS011;56471;53.508;49.252;2023-07-24T05:35:59;4.72;;;3.97;;
69325;SDS011;56471;53.508;49.252;2023-07-24T05:38:25;5.05;;;4.28;;
69325;SDS011;56471;53.508;49.252;2023-07-24T05:40:57;5.90;;;4.50;;
69325;SDS011;56471;53.508;49.252;2023-07-24T05:43:24;5.75;;;4.60;;
69325;SDS011;56471;53.508;49.252;2023-07-24T05:45:51;5.60;;;4.50;;
69325;SDS011;56471;53.508;49.252;2023-07-24T05:48:17;5.85;;;4.40;;
69325;SDS011;56471;53.508;49.252;2023-07-24T05:50:42;5.57;;;4.55;;
69325;SDS011;56471;53.508;49.252;2023-07-24T05:53:08;6.00;;;4.70;;
69325;SDS011;56471;53.508;49.252;2023-07-24T05:55:34;5.40;;;4.90;;
69325;SDS011;56471;53.508;49.252;2023-07-24T05:57:59;6.05;;;4.70;;
69325;SDS011;56471;53.508;49.252;2023-07-24T06:00:25;5.68;;;5.05;;
69325;SDS011;56471;53.508;49.252;2023-07-24T06:02:51;5.88;;;5.18;;
69325;SDS011;56471;53.508;49.252;2023-07-24T06:05:17;5.53;;;5.00;;
69325;SDS011;56471;53.508;49.252;2023-07-24T06:07:44;6.40;;;5.40;;
69325;SDS011;56471;53.508;49.252;2023-07-24T06:10:10;5.40;;;4.90;;
69325;SDS011;56471;53.508;49.252;2023-07-24T06:12:36;6.05;;;5.45;;
69325;SDS011;56471;53.508;49.252;2023-07-24T06:15:02;6.07;;;5.38;;
69325;SDS011;56471;53.508;49.252;2023-07-24T06:17:28;5.60;;;5.00;;
69325;SDS011;56471;53.508;49.252;2023-07-24T06:19:54;6.15;;;5.55;;
69325;SDS011;56471;53.508;49.252;2023-07-24T06:22:19;9.05;;;5.70;;
69325;SDS011;56471;53.508;49.252;2023-07-24T06:24:45;6.60;;;5.53;;
69325;SDS011;56471;53.508;49.252;2023-07-24T06:27:11;6.22;;;5.38;;
69325;SDS011;56471;53.508;49.252;2023-07-24T06:29:36;6.40;;;5.22;;
69325;SDS011;56471;53.508;49.252;2023-07-24T06:32:02;6.03;;;5.25;;
69325;SDS011;56471;53.508;49.252;2023-07-24T06:34:28;9.85;;;5.43;;
69325;SDS011;56471;53.508;49.252;2023-07-24T06:36:54;5.50;;;5.00;;
69325;SDS011;56471;53.508;49.252;2023-07-24T06:39:19;5.82;;;5.22;;
69325;SDS011;56471;53.508;49.252;2023-07-24T06:41:45;6.13;;;5.50;;
69325;SDS011;56471;53.508;49.252;2023-07-24T06:44:11;5.45;;;4.95;;
69325;SDS011;56471;53.508;49.252;2023-07-24T06:46:37;5.82;;;4.88;;
69325;SDS011;56471;53.508;49.252;2023-07-24T06:49:02;5.65;;;5.05;;
69325;SDS011;56471;53.508;49.252;2023-07-24T06:51:28;5.28;;;4.80;;
69325;SDS011;56471;53.508;49.252;2023-07-24T06:53:54;5.60;;;4.85;;
69325;SDS011;56471;53.508;49.252;2023-07-24T06:56:19;5.38;;;4.88;;
69325;SDS011;56471;53.508;49.252;2023-07-24T06:58:45;5.97;;;4.25;;
69325;SDS011;56471;53.508;49.252;2023-07-24T07:01:11;4.97;;;4.47;;
69325;SDS011;56471;53.508;49.252;2023-07-24T07:03:36;4.85;;;4.20;;
69325;SDS011;56471;53.508;49.252;2023-07-24T07:06:02;6.65;;;4.28;;
69325;SDS011;56471;53.508;49.252;2023-07-24T07:08:29;4.88;;;4.00;;
69325;SDS011;56471;53.508;49.252;2023-07-24T07:10:56;7.18;;;4.30;;
69325;SDS011;56471;53.508;49.252;2023-07-24T07:13:22;4.20;;;3.80;;
69325;SDS011;56471;53.508;49.252;2023-07-24T07:15:47;4.43;;;3.80;;
69325;SDS011;56471;53.508;49.252;2023-07-24T07:18:13;5.40;;;4.07;;
69325;SDS011;56471;53.508;49.252;2023-07-24T07:20:50;4.88;;;4.00;;
69325;SDS011;56471;53.508;49.252;2023-07-24T07:23:17;3.80;;;3.50;;
69325;SDS011;56471;53.508;49.252;2023-07-24T07:25:43;3.70;;;3.40;;
69325;SDS011;56471;53.508;49.252;2023-07-24T07:28:13;3.92;;;3.53;;
69325;SDS011;56471;53.508;49.252;2023-07-24T07:30:40;3.95;;;3.65;;
69325;SDS011;56471;53.508;49.252;2023-07-24T07:33:06;4.65;;;3.40;;
69325;SDS011;56471;53.508;49.252;2023-07-24T07:35:32;3.90;;;3.50;;
69325;SDS011;56471;53.508;49.252;2023-07-24T07:37:58;3.88;;;3.50;;
69325;SDS011;56471;53.508;49.252;2023-07-24T07:40:24;3.53;;;3.22;;
69325;SDS011;56471;53.508;49.252;2023-07-24T07:42:52;5.03;;;3.33;;
69325;SDS011;56471;53.508;49.252;2023-07-24T07:45:18;3.60;;;3.30;;
69325;SDS011;56471;53.508;49.252;2023-07-24T07:47:44;113.00;;;69.93;;
69325;SDS011;56471;53.508;49.252;2023-07-24T07:50:10;414.38;;;300.67;;
69325;SDS011;56471;53.508;49.252;2023-07-24T07:52:36;432.00;;;306.42;;
69325;SDS011;56471;53.508;49.252;2023-07-24T07:55:05;307.70;;;204.30;;
69325;SDS011;56471;53.508;49.252;2023-07-24T07:57:34;237.85;;;146.05;;
69325;SDS011;56471;53.508;49.252;2023-07-24T08:00:01;181.43;;;112.15;;
69325;SDS011;56471;53.508;49.252;2023-07-24T08:02:27;135.05;;;83.57;;
69325;SDS011;56471;53.508;49.252;2023-07-24T08:04:53;119.55;;;72.13;;
69325;SDS011;56471;53.508;49.252;2023-07-24T08:07:19;91.97;;;51.95;;
69325;SDS011;56471;53.508;49.252;2023-07-24T08:09:45;76.82;;;42.97;;
69325;SDS011;56471;53.508;49.252;2023-07-24T08:12:11;58.28;;;33.25;;
69325;SDS011;56471;53.508;49.252;2023-07-24T08:14:37;54.05;;;30.55;;
69325;SDS011;56471;53.508;49.252;2023-07-24T08:17:02;37.17;;;21.98;;
69325;SDS011;56471;53.508;49.252;2023-07-24T08:19:28;29.25;;;18.00;;
69325;SDS011;56471;53.508;49.252;2023-07-24T08:21:54;26.80;;;15.70;;
69325;SDS011;56471;53.508;49.252;2023-07-24T08:24:20;20.35;;;13.10;;
69325;SDS011;56471;53.508;49.252;2023-07-24T08:26:46;18.13;;;11.30;;
69325;SDS011;56471;53.508;49.252;2023-07-24T08:29:12;13.63;;;8.85;;
69325;SDS011;56471;53.508;49.252;2023-07-24T08:31:37;11.90;;;7.97;;
69325;SDS011;56471;53.508;49.252;2023-07-24T08:34:03;5.90;;;5.25;;
69325;SDS011;56471;53.508;49.252;2023-07-24T08:36:29;6.50;;;4.68;;
69325;SDS011;56471;53.508;49.252;2023-07-24T08:38:54;5.53;;;4.80;;
69325;SDS011;56471;53.508;49.252;2023-07-24T08:41:20;6.45;;;4.60;;
69325;SDS011;56471;53.508;49.252;2023-07-24T08:43:46;5.18;;;4.30;;
69325;SDS011;56471;53.508;49.252;2023-07-24T08:46:11;5.55;;;4.40;;
69325;SDS011;56471;53.508;49.252;2023-07-24T08:48:40;5.00;;;4.50;;
69325;SDS011;56471;53.508;49.252;2023-07-24T08:51:08;4.55;;;4.13;;
69325;SDS011;56471;53.508;49.252;2023-07-24T08:53:38;5.03;;;4.45;;
69325;SDS011;56471;53.508;49.252;2023-07-24T08:56:05;4.40;;;4.00;;
69325;SDS011;56471;53.508;49.252;2023-07-24T08:58:32;4.63;;;4.10;;
69325;SDS011;56471;53.508;49.252;2023-07-24T09:00:59;5.72;;;4.10;;
69325;SDS011;56471;53.508;49.252;2023-07-24T09:03:25;4.38;;;3.97;;
69325;SDS011;56471;53.508;49.252;2023-07-24T09:05:52;4.25;;;3.92;;
69325;SDS011;56471;53.508;49.252;2023-07-24T09:08:27;4.55;;;4.13;;
69325;SDS011;56471;53.508;49.252;2023-07-24T09:10:58;4.68;;;4.10;;
69325;SDS011;56471;53.508;49.252;2023-07-24T09:13:27;4.40;;;4.00;;
69325;SDS011;56471;53.508;49.252;2023-07-24T09:15:53;4.20;;;3.80;;
69325;SDS011;56471;53.508;49.252;2023-07-24T09:18:19;5.50;;;3.90;;
69325;SDS011;56471;53.508;49.252;2023-07-24T09:20:45;6.22;;;4.20;;
69325;SDS011;56471;53.508;49.252;2023-07-24T09:23:12;4.30;;;3.90;;
69325;SDS011;56471;53.508;49.252;2023-07-24T09:25:40;4.35;;;3.95;;
69325;SDS011;56471;53.508;49.252;2023-07-24T09:30:36;1005.03;;;752.83;;
69325;SDS011;56471;53.508;49.252;2023-07-24T09:33:03;516.63;;;418.25;;
69325;SDS011;56471;53.508;49.252;2023-07-24T09:35:29;425.45;;;331.00;;
69325;SDS011;56471;53.508;49.252;2023-07-24T09:38:13;351.73;;;270.20;;
69325;SDS011;56471;53.508;49.252;2023-07-24T09:45:44;163.75;;;109.55;;
69325;SDS011;56471;53.508;49.252;2023-07-24T09:48:11;124.38;;;82.82;;
69325;SDS011;56471;53.508;49.252;2023-07-24T09:50:40;100.82;;;62.60;;
69325;SDS011;56471;53.508;49.252;2023-07-24T09:53:21;77.15;;;47.15;;
69325;SDS011;56471;53.508;49.252;2023-07-24T09:56:07;54.90;;;34.00;;
69325;SDS011;56471;53.508;49.252;2023-07-24T09:58:35;43.63;;;26.45;;
69325;SDS011;56471;53.508;49.252;2023-07-24T10:01:02;35.78;;;23.23;;
69325;SDS011;56471;53.508;49.252;2023-07-24T10:03:38;24.23;;;15.82;;
69325;SDS011;56471;53.508;49.252;2023-07-24T10:06:05;20.13;;;13.77;;
69325;SDS011;56471;53.508;49.252;2023-07-24T10:08:35;15.15;;;10.95;;
69325;SDS011;56471;53.508;49.252;2023-07-24T10:11:01;14.65;;;10.00;;
69325;SDS011;56471;53.508;49.252;2023-07-24T10:13:27;11.63;;;8.75;;
69325;SDS011;56471;53.508;49.252;2023-07-24T10:15:54;9.38;;;7.40;;
69325;SDS011;56471;53.508;49.252;2023-07-24T10:18:25;8.70;;;6.53;;
69325;SDS011;56471;53.508;49.252;2023-07-24T10:21:06;7.25;;;6.05;;
69325;SDS011;56471;53.508;49.252;2023-07-24T10:23:36;7.55;;;5.90;;
69325;SDS011;56471;53.508;49.252;2023-07-24T10:26:05;5.78;;;5.18;;
69325;SDS011;56471;53.508;49.252;2023-07-24T10:28:36;5.95;;;5.07;;
69325;SDS011;56471;53.508;49.252;2023-07-24T10:31:06;5.82;;;5.13;;
69325;SDS011;56471;53.508;49.252;2023-07-24T10:33:36;5.90;;;4.80;;
69325;SDS011;56471;53.508;49.252;2023-07-24T10:36:09;4.85;;;4.45;;
69325;SDS011;56471;53.508;49.252;2023-07-24T10:38:40;383.95;;;269.67;;
69325;SDS011;56471;53.508;49.252;2023-07-24T10:41:07;272.00;;;186.43;;
69325;SDS011;56471;53.508;49.252;2023-07-24T10:44:07;645.42;;;555.90;;
69325;SDS011;56471;53.508;49.252;2023-07-24T10:46:35;497.07;;;405.33;;
69325;SDS011;56471;53.508;49.252;2023-07-24T10:49:02;441.63;;;352.67;;
69325;SDS011;56471;53.508;49.252;2023-07-24T10:51:28;398.00;;;309.90;;
69325;SDS011;56471;53.508;49.252;2023-07-24T10:53:54;345.45;;;265.60;;
69325;SDS011;56471;53.508;49.252;2023-07-24T10:56:20;314.55;;;243.73;;
69325;SDS011;56471;53.508;49.252;2023-07-24T10:58:46;257.42;;;189.23;;
69325;SDS011;56471;53.508;49.252;2023-07-24T11:01:12;228.07;;;162.23;;
69325;SDS011;56471;53.508;49.252;2023-07-24T11:03:40;190.43;;;133.95;;
69325;SDS011;56471;53.508;49.252;2023-07-24T11:06:16;175.38;;;123.63;;
69325;SDS011;56471;53.508;49.252;2023-07-24T11:08:53;135.43;;;94.38;;
69325;SDS011;56471;53.508;49.252;2023-07-24T11:11:33;125.30;;;84.95;;
69325;SDS011;56471;53.508;49.252;2023-07-24T11:14:01;103.72;;;69.82;;
69325;SDS011;56471;53.508;49.252;2023-07-24T11:16:28;85.63;;;55.00;;
69325;SDS011;56471;53.508;49.252;2023-07-24T11:18:56;79.20;;;48.22;;
69325;SDS011;56471;53.508;49.252;2023-07-24T11:21:22;874.72;;;663.88;;
69325;SDS011;56471;53.508;49.252;2023-07-24T11:23:49;873.75;;;679.78;;
69325;SDS011;56471;53.508;49.252;2023-07-24T11:26:20;744.47;;;607.15;;
69325;SDS011;56471;53.508;49.252;2023-07-24T11:28:48;701.15;;;575.08;;
69325;SDS011;56471;53.508;49.252;2023-07-24T11:31:17;639.63;;;534.40;;
69325;SDS011;56471;53.508;49.252;2023-07-24T11:33:46;600.53;;;493.23;;
69325;SDS011;56471;53.508;49.252;2023-07-24T11:36:15;511.45;;;402.08;;
69325;SDS011;56471;53.508;49.252;2023-07-24T11:38:41;438.33;;;332.50;;
69325;SDS011;56471;53.508;49.252;2023-07-24T11:41:08;399.65;;;299.08;;
69325;SDS011;56471;53.508;49.252;2023-07-24T11:43:34;351.65;;;256.75;;
69325;SDS011;56471;53.508;49.252;2023-07-24T11:45:59;335.05;;;245.75;;
69325;SDS011;56471;53.508;49.252;2023-07-24T11:48:25;305.77;;;219.65;;
69325;SDS011;56471;53.508;49.252;2023-07-24T11:50:52;268.58;;;185.57;;
69325;SDS011;56471;53.508;49.252;2023-07-24T11:53:22;238.70;;;156.52;;
69325;SDS011;56471;53.508;49.252;2023-07-24T11:55:54;203.97;;;135.73;;
69325;SDS011;56471;53.508;49.252;2023-07-24T11:58:22;172.82;;;115.47;;
69325;SDS011;56471;53.508;49.252;2023-07-24T12:00:50;163.90;;;110.20;;
69325;SDS011;56471;53.508;49.252;2023-07-24T12:03:24;140.00;;;90.88;;
69325;SDS011;56471;53.508;49.252;2023-07-24T12:05:50;132.32;;;86.63;;
69325;SDS011;56471;53.508;49.252;2023-07-24T12:08:17;112.32;;;71.20;;
69325;SDS011;56471;53.508;49.252;2023-07-24T12:10:48;82.20;;;49.28;;
69325;SDS011;56471;53.508;49.252;2023-07-24T12:13:14;68.32;;;39.70;;
69325;SDS011;56471;53.508;49.252;2023-07-24T12:15:40;66.32;;;37.13;;
69325;SDS011;56471;53.508;49.252;2023-07-24T12:18:06;61.58;;;34.53;;
69325;SDS011;56471;53.508;49.252;2023-07-24T12:20:32;47.38;;;27.63;;
69325;SDS011;56471;53.508;49.252;2023-07-24T12:22:59;168.57;;;110.32;;
69325;SDS011;56471;53.508;49.252;2023-07-24T12:25:25;481.77;;;399.38;;
69325;SDS011;56471;53.508;49.252;2023-07-24T12:27:51;461.35;;;372.02;;
69325;SDS011;56471;53.508;49.252;2023-07-24T12:30:17;259.55;;;189.05;;
69325;SDS011;56471;53.508;49.252;2023-07-24T12:32:43;786.78;;;658.92;;
69325;SDS011;56471;53.508;49.252;2023-07-24T12:35:09;593.75;;;502.33;;
69325;SDS011;56471;53.508;49.252;2023-07-24T12:37:35;69.70;;;42.17;;
69325;SDS011;56471;53.508;49.252;2023-07-24T12:40:01;12.75;;;7.18;;
69325;SDS011;56471;53.508;49.252;2023-07-24T12:42:27;21.77;;;12.20;;
69325;SDS011;56471;53.508;49.252;2023-07-24T12:44:53;10.05;;;3.75;;
69325;SDS011;56471;53.508;49.252;2023-07-24T12:47:18;5.47;;;4.05;;
69325;SDS011;56471;53.508;49.252;2023-07-24T12:49:44;3.78;;;3.10;;
69325;SDS011;56471;53.508;49.252;2023-07-24T12:52:10;3.05;;;2.50;;
69325;SDS011;56471;53.508;49.252;2023-07-24T12:54:36;3.90;;;3.10;;
69325;SDS011;56471;53.508;49.252;2023-07-24T12:57:01;3.53;;;2.60;;
69325;SDS011;56471;53.508;49.252;2023-07-24T12:59:28;3.65;;;2.80;;
69325;SDS011;56471;53.508;49.252;2023-07-24T13:01:54;3.75;;;2.83;;
69325;SDS011;56471;53.508;49.252;2023-07-24T13:04:20;3.60;;;2.70;;
69325;SDS011;56471;53.508;49.252;2023-07-24T13:06:47;2.88;;;2.58;;
69325;SDS011;56471;53.508;49.252;2023-07-24T13:09:13;4.30;;;2.90;;
69325;SDS011;56471;53.508;49.252;2023-07-24T13:11:39;3.15;;;2.47;;
69325;SDS011;56471;53.508;49.252;2023-07-24T13:14:04;3.42;;;2.85;;
69325;SDS011;56471;53.508;49.252;2023-07-24T13:16:30;5.78;;;2.80;;
69325;SDS011;56471;53.508;49.252;2023-07-24T13:18:56;7.05;;;3.00;;
69325;SDS011;56471;53.508;49.252;2023-07-24T13:21:21;46.05;;;30.05;;
69325;SDS011;56471;53.508;49.252;2023-07-24T13:23:48;178.68;;;111.53;;
69325;SDS011;56471;53.508;49.252;2023-07-24T13:26:14;39.45;;;22.88;;
69325;SDS011;56471;53.508;49.252;2023-07-24T13:28:40;10.73;;;5.72;;
69325;SDS011;56471;53.508;49.252;2023-07-24T13:31:13;6.15;;;3.70;;
69325;SDS011;56471;53.508;49.252;2023-07-24T13:33:43;5.55;;;3.10;;
69325;SDS011;56471;53.508;49.252;2023-07-24T13:36:09;3.58;;;2.83;;
69325;SDS011;56471;53.508;49.252;2023-07-24T13:38:35;4.72;;;2.90;;
69325;SDS011;56471;53.508;49.252;2023-07-24T13:41:01;6.05;;;2.90;;
69325;SDS011;56471;53.508;49.252;2023-07-24T13:43:27;4.63;;;2.67;;
69325;SDS011;56471;53.508;49.252;2023-07-24T13:45:54;6.03;;;2.95;;
69325;SDS011;56471;53.508;49.252;2023-07-24T13:48:20;2.63;;;2.30;;
69325;SDS011;56471;53.508;49.252;2023-07-24T13:50:46;30.35;;;19.52;;
69325;SDS011;56471;53.508;49.252;2023-07-24T13:53:12;221.75;;;171.52;;
69325;SDS011;56471;53.508;49.252;2023-07-24T13:55:38;409.52;;;310.60;;
69325;SDS011;56471;53.508;49.252;2023-07-24T13:58:03;69.38;;;40.72;;
69325;SDS011;56471;53.508;49.252;2023-07-24T14:00:29;9.90;;;5.22;;
69325;SDS011;56471;53.508;49.252;2023-07-24T14:02:55;3.88;;;2.80;;
69325;SDS011;56471;53.508;49.252;2023-07-24T14:05:20;5.72;;;3.63;;
69325;SDS011;56471;53.508;49.252;2023-07-24T14:07:46;3.45;;;2.80;;
69325;SDS011;56471;53.508;49.252;2023-07-24T14:10:12;3.15;;;2.85;;
69325;SDS011;56471;53.508;49.252;2023-07-24T14:12:37;3.25;;;2.92;;
69325;SDS011;56471;53.508;49.252;2023-07-24T14:15:03;3.13;;;2.80;;
69325;SDS011;56471;53.508;49.252;2023-07-24T14:17:29;3.00;;;2.78;;
69325;SDS011;56471;53.508;49.252;2023-07-24T14:19:55;4.07;;;2.78;;
69325;SDS011;56471;53.508;49.252;2023-07-24T14:22:20;4.47;;;2.70;;
69325;SDS011;56471;53.508;49.252;2023-07-24T14:24:46;5.72;;;2.83;;
69325;SDS011;56471;53.508;49.252;2023-07-24T14:27:13;4.13;;;2.78;;
69325;SDS011;56471;53.508;49.252;2023-07-24T14:29:39;10.05;;;2.90;;
69325;SDS011;56471;53.508;49.252;2023-07-24T14:32:05;4.25;;;2.80;;